Time;durP1;ratioP1;P1;durP2;ratioP2;P2;SDS_P1;SDS_P2;PMS_P1;PMS_P2;Temp;Humidity;BMP_temperature;BMP_pressure;BME280_temperature;BME280_humidity;BME280_pressure;Samples;Min_cycle;Max_cycle;Signal;HPM_P1;HPM_P2
2022/02/15 00:01:42;;;;;;;1.77;0.65;;;9.90;70.20;;;;;;2289373;56;21963;-73
2022/02/15 00:04:09;;;;;;;2.30;0.52;;;9.90;70.30;;;;;;2325046;55;21930;-71
2022/02/15 00:06:35;;;;;;;1.55;0.50;;;9.90;70.40;;;;;;2289249;56;21484;-73
2022/02/15 00:09:02;;;;;;;2.67;0.70;;;9.90;70.50;;;;;;2289058;56;20956;-72
2022/02/15 00:11:29;;;;;;;1.65;0.60;;;9.90;70.50;;;;;;2290587;55;20938;-72
2022/02/15 00:13:56;;;;;;;2.60;0.70;;;10.00;69.60;;;;;;2288476;54;20929;-73
2022/02/15 00:16:23;;;;;;;1.42;0.50;;;10.00;69.60;;;;;;2289009;56;21000;-73
2022/02/15 00:18:49;;;;;;;1.50;0.60;;;10.00;69.50;;;;;;2445749;54;21028;-73
2022/02/15 00:21:16;;;;;;;1.17;0.60;;;10.00;69.50;;;;;;2288804;56;20984;-72
2022/02/15 00:23:42;;;;;;;1.52;0.50;;;10.00;69.50;;;;;;2285328;55;20954;-73
2022/02/15 00:26:09;;;;;;;1.58;0.62;;;10.00;69.50;;;;;;2436648;54;20953;-72
2022/02/15 00:28:35;;;;;;;2.37;0.70;;;10.10;69.60;;;;;;2289223;56;21020;-72
2022/02/15 00:31:02;;;;;;;1.50;0.62;;;10.10;69.50;;;;;;2354942;55;20981;-73
2022/02/15 00:33:29;;;;;;;2.60;0.80;;;10.10;69.50;;;;;;2491304;54;20949;-72
2022/02/15 00:35:57;;;;;;;2.62;0.60;;;10.10;69.50;;;;;;2289212;55;21069;-71
2022/02/15 00:38:25;;;;;;;1.77;0.60;;;10.20;69.60;;;;;;2292558;55;20998;-73
2022/02/15 00:40:51;;;;;;;1.80;0.60;;;10.20;69.60;;;;;;2285281;54;20971;-72
2022/02/15 00:43:17;;;;;;;3.47;0.73;;;10.20;69.60;;;;;;2288536;55;21717;-73
2022/02/15 00:45:44;;;;;;;1.67;0.50;;;10.30;69.60;;;;;;2289027;56;21387;-73
2022/02/15 00:48:10;;;;;;;3.72;0.73;;;10.30;69.60;;;;;;2289340;56;20980;-71
2022/02/15 00:50:36;;;;;;;1.75;0.55;;;10.30;69.50;;;;;;2301830;55;21040;-72
2022/02/15 00:53:03;;;;;;;1.42;0.50;;;10.30;69.40;;;;;;2289316;56;20984;-73
2022/02/15 00:55:29;;;;;;;2.05;0.77;;;10.30;69.40;;;;;;2290472;55;20965;-74
2022/02/15 00:57:55;;;;;;;1.65;0.60;;;10.30;69.30;;;;;;2323961;55;21469;-72
2022/02/15 01:00:22;;;;;;;3.80;1.40;;;10.30;69.10;;;;;;2289530;56;20925;-72
2022/02/15 01:02:49;;;;;;;1.30;0.50;;;10.30;69.10;;;;;;2288564;55;21024;-72
2022/02/15 01:05:15;;;;;;;3.53;0.70;;;10.40;69.20;;;;;;2287866;55;21530;-72
2022/02/15 01:07:41;;;;;;;2.67;0.60;;;10.40;69.20;;;;;;2289229;56;21021;-71
2022/02/15 01:10:08;;;;;;;2.10;0.60;;;10.40;69.30;;;;;;2289181;55;21009;-73
2022/02/15 01:12:35;;;;;;;1.98;0.52;;;10.40;69.30;;;;;;2451211;54;20935;-73
2022/02/15 01:15:02;;;;;;;4.65;0.68;;;10.40;69.30;;;;;;2284005;55;20964;-73
2022/02/15 01:17:29;;;;;;;1.67;0.60;;;10.50;69.40;;;;;;2387220;55;21426;-73
2022/02/15 01:19:55;;;;;;;2.10;0.55;;;10.40;69.20;;;;;;2289503;56;20961;-72
2022/02/15 01:22:22;;;;;;;1.60;0.65;;;10.40;69.90;;;;;;2288809;56;20997;-73
2022/02/15 01:24:48;;;;;;;1.58;0.70;;;10.50;69.20;;;;;;2303599;55;20989;-72
2022/02/15 01:27:16;;;;;;;1.48;0.60;;;10.50;69.10;;;;;;2300944;55;20928;-74
2022/02/15 01:29:42;;;;;;;3.20;0.77;;;10.50;69.10;;;;;;2289248;56;20960;-72
2022/02/15 01:32:09;;;;;;;2.30;0.60;;;10.50;69.10;;;;;;2363039;55;20958;-72
2022/02/15 01:34:35;;;;;;;2.50;0.80;;;10.50;69.20;;;;;;2292884;55;20965;-73
2022/02/15 01:37:02;;;;;;;1.62;0.50;;;10.50;69.10;;;;;;2273673;55;20948;-73
2022/02/15 01:39:30;;;;;;;2.15;0.77;;;10.50;68.90;;;;;;2287662;55;20962;-72
2022/02/15 01:41:59;;;;;;;0.75;0.40;;;10.50;68.80;;;;;;2290745;55;21017;-73
2022/02/15 01:44:25;;;;;;;1.80;0.57;;;10.50;68.70;;;;;;2286471;55;20934;-72
2022/02/15 01:46:52;;;;;;;2.12;0.65;;;10.50;68.70;;;;;;2284504;55;20957;-73
2022/02/15 01:49:18;;;;;;;2.85;0.70;;;10.60;68.70;;;;;;2290424;55;20905;-72
2022/02/15 01:51:44;;;;;;;2.22;0.70;;;10.50;68.50;;;;;;2315773;54;20999;-72
2022/02/15 01:54:10;;;;;;;1.15;0.60;;;10.50;69.20;;;;;;2316773;54;20940;-72
2022/02/15 01:56:37;;;;;;;1.85;0.80;;;10.50;68.50;;;;;;2372573;55;21016;-72
2022/02/15 01:59:03;;;;;;;1.20;0.50;;;10.50;68.50;;;;;;2293924;55;21492;-73
2022/02/15 02:01:31;;;;;;;1.75;0.50;;;10.50;68.40;;;;;;2288765;56;20929;-73
2022/02/15 02:03:58;;;;;;;1.77;0.65;;;10.50;68.30;;;;;;2288534;56;20961;-72
2022/02/15 02:06:25;;;;;;;1.65;0.60;;;10.50;68.20;;;;;;2428608;55;21036;-74
2022/02/15 02:08:54;;;;;;;2.87;0.60;;;10.50;68.20;;;;;;2289601;56;20932;-73
2022/02/15 02:11:20;;;;;;;1.45;0.50;;;10.40;68.10;;;;;;2288762;56;20944;-72
2022/02/15 02:13:47;;;;;;;1.52;0.60;;;10.40;68.30;;;;;;2289356;56;20944;-72
2022/02/15 02:16:13;;;;;;;1.52;0.50;;;10.40;68.40;;;;;;2328962;55;21008;-73
2022/02/15 02:18:40;;;;;;;1.92;0.82;;;10.40;68.40;;;;;;2290076;55;20952;-72
2022/02/15 02:21:06;;;;;;;2.17;0.65;;;10.40;68.50;;;;;;2329562;55;21025;-72
2022/02/15 02:23:33;;;;;;;2.28;0.57;;;10.40;68.60;;;;;;2426224;55;21012;-73
2022/02/15 02:26:01;;;;;;;3.17;0.65;;;10.40;68.60;;;;;;2443179;55;21930;-72
2022/02/15 02:28:28;;;;;;;1.30;0.60;;;10.40;68.70;;;;;;2284336;55;21039;-72
2022/02/15 02:30:55;;;;;;;2.03;0.70;;;10.40;68.70;;;;;;2288943;56;20972;-72
2022/02/15 02:33:21;;;;;;;1.87;0.90;;;10.40;68.80;;;;;;2287823;55;21366;-72
2022/02/15 02:35:57;;;;;;;2.35;0.70;;;10.40;68.90;;;;;;2287861;55;20958;-73
2022/02/15 02:38:24;;;;;;;6.20;0.90;;;10.40;68.70;;;;;;2290002;55;21619;-72
2022/02/15 02:40:50;;;;;;;2.85;0.70;;;10.40;69.00;;;;;;2289080;56;21541;-72
2022/02/15 02:43:17;;;;;;;3.50;0.90;;;10.50;69.10;;;;;;2333676;55;20945;-73
2022/02/15 02:45:43;;;;;;;2.10;0.90;;;10.40;69.00;;;;;;2298120;55;21489;-74
2022/02/15 02:48:10;;;;;;;2.05;0.90;;;10.50;69.00;;;;;;2294905;55;21028;-74
2022/02/15 02:50:36;;;;;;;2.42;0.88;;;10.50;69.20;;;;;;2330701;54;20977;-74
2022/02/15 02:53:09;;;;;;;2.87;0.90;;;10.50;69.10;;;;;;2289082;56;20957;-72
2022/02/15 02:55:35;;;;;;;2.17;0.73;;;10.50;68.90;;;;;;2313912;55;20981;-73
2022/02/15 02:58:02;;;;;;;2.55;0.95;;;10.50;69.00;;;;;;2297945;55;20964;-72
2022/02/15 03:00:28;;;;;;;2.35;0.93;;;10.50;69.00;;;;;;2284677;55;21509;-73
2022/02/15 03:02:54;;;;;;;4.45;1.15;;;10.50;69.00;;;;;;2462166;55;21343;-72
2022/02/15 03:05:21;;;;;;;2.50;1.00;;;10.50;69.00;;;;;;2288945;56;21410;-71
2022/02/15 03:07:48;;;;;;;2.45;0.82;;;10.60;69.10;;;;;;2288671;56;20940;-73
2022/02/15 03:10:15;;;;;;;2.40;0.90;;;10.60;69.80;;;;;;2342297;55;21009;-72
2022/02/15 03:12:42;;;;;;;2.35;1.00;;;10.60;69.10;;;;;;2288668;56;20961;-73
2022/02/15 03:15:09;;;;;;;2.60;1.00;;;10.60;68.90;;;;;;2390944;55;21362;-73
2022/02/15 03:17:35;;;;;;;2.28;1.08;;;10.60;68.90;;;;;;2289050;56;20948;-72
2022/02/15 03:20:13;;;;;;;2.55;1.10;;;10.60;68.90;;;;;;2311547;55;21433;-73
2022/02/15 03:22:40;;;;;;;4.10;1.52;;;10.60;68.90;;;;;;2288599;55;21802;-74
2022/02/15 03:25:07;;;;;;;3.05;1.20;;;10.60;68.70;;;;;;2288885;55;20963;-73
2022/02/15 03:27:33;;;;;;;3.10;1.37;;;10.60;68.70;;;;;;2288880;55;21063;-73
2022/02/15 03:29:59;;;;;;;3.05;1.25;;;10.60;68.70;;;;;;2278841;54;20949;-73
2022/02/15 03:32:27;;;;;;;3.55;1.55;;;10.70;68.60;;;;;;2251557;55;2253627;-73
2022/02/15 03:34:53;;;;;;;3.42;1.50;;;10.60;68.70;;;;;;2287585;55;21012;-72
2022/02/15 03:37:19;;;;;;;4.30;1.67;;;10.60;68.60;;;;;;2288687;56;20940;-72
2022/02/15 03:39:46;;;;;;;3.17;1.52;;;10.60;68.70;;;;;;2287552;56;20944;-72
2022/02/15 03:44:57;;;;;;;2.80;1.20;;;10.60;68.60;;;;;;2290357;55;20977;-73
2022/02/15 03:47:25;;;;;;;3.10;1.48;;;10.60;68.60;;;;;;2297250;55;21003;-71
2022/02/15 03:49:51;;;;;;;2.80;1.42;;;10.60;68.40;;;;;;2295326;54;21371;-72
2022/02/15 03:52:18;;;;;;;3.05;1.60;;;10.60;68.40;;;;;;2288613;54;20973;-73
2022/02/15 03:54:44;;;;;;;2.90;1.37;;;10.60;68.40;;;;;;2286440;55;20945;-72
2022/02/15 03:57:10;;;;;;;3.67;1.37;;;10.60;68.50;;;;;;2288630;56;20968;-73
2022/02/15 03:59:39;;;;;;;5.18;1.52;;;10.60;68.70;;;;;;2287891;55;21371;-72
2022/02/15 04:02:05;;;;;;;3.75;1.77;;;10.60;68.60;;;;;;2305207;55;20972;-72
2022/02/15 04:04:32;;;;;;;4.10;1.85;;;10.60;68.70;;;;;;2288924;56;20996;-71
2022/02/15 04:06:58;;;;;;;4.62;1.58;;;10.60;68.70;;;;;;2288346;56;20984;-71
2022/02/15 04:09:25;;;;;;;3.78;1.80;;;10.50;68.60;;;;;;2288709;56;21016;-74
2022/02/15 04:11:51;;;;;;;3.22;1.58;;;10.50;68.50;;;;;;2361584;55;20952;-72
2022/02/15 04:14:18;;;;;;;3.60;1.62;;;10.60;69.00;;;;;;2343223;55;21934;-72
2022/02/15 04:16:44;;;;;;;3.40;1.60;;;10.50;68.50;;;;;;2289968;55;21004;-71
2022/02/15 04:19:11;;;;;;;2.85;1.40;;;10.50;68.60;;;;;;2286511;55;21032;-73
2022/02/15 04:21:37;;;;;;;2.97;1.50;;;10.50;68.50;;;;;;2288200;55;20986;-73
2022/02/15 04:24:04;;;;;;;3.00;1.40;;;10.50;68.70;;;;;;2289832;56;21080;-73
2022/02/15 04:26:30;;;;;;;4.37;1.80;;;10.50;69.40;;;;;;2286397;55;20976;-72
2022/02/15 04:28:56;;;;;;;4.03;1.75;;;10.50;68.70;;;;;;2289148;55;20954;-73
2022/02/15 04:31:23;;;;;;;3.65;1.87;;;10.50;68.70;;;;;;2266529;55;21513;-73
2022/02/15 04:33:49;;;;;;;4.57;2.03;;;10.50;68.30;;;;;;2286730;55;21505;-71
2022/02/15 04:36:15;;;;;;;4.72;2.12;;;10.50;68.60;;;;;;2450955;55;21034;-73
2022/02/15 04:38:42;;;;;;;4.90;1.83;;;10.50;68.70;;;;;;2288430;55;21074;-73
2022/02/15 04:41:08;;;;;;;2.90;1.42;;;10.50;68.80;;;;;;2287846;55;21452;-72
2022/02/15 04:43:36;;;;;;;3.45;1.30;;;10.50;68.80;;;;;;2289033;56;21119;-72
2022/02/15 04:46:05;;;;;;;3.35;1.40;;;10.50;68.80;;;;;;2289302;55;20978;-73
2022/02/15 04:48:32;;;;;;;2.67;1.15;;;10.50;68.80;;;;;;2288049;55;21052;-71
2022/02/15 04:50:58;;;;;;;3.78;1.45;;;10.50;68.90;;;;;;2339976;55;21041;-72
2022/02/15 04:53:24;;;;;;;5.32;1.70;;;10.50;68.70;;;;;;2288790;55;20937;-72
2022/02/15 04:55:53;;;;;;;4.37;1.40;;;10.50;68.60;;;;;;2288226;54;21005;-72
2022/02/15 04:58:20;;;;;;;3.60;1.55;;;10.50;68.50;;;;;;2398184;55;21838;-72
2022/02/15 05:00:48;;;;;;;3.40;1.50;;;10.50;68.70;;;;;;2288703;56;21016;-72
2022/02/15 05:03:15;;;;;;;3.90;1.37;;;10.50;68.60;;;;;;2289106;56;20991;-71
2022/02/15 05:05:41;;;;;;;3.72;1.50;;;10.50;68.80;;;;;;2288972;56;21005;-73
2022/02/15 05:08:08;;;;;;;2.37;1.15;;;10.40;68.70;;;;;;2418320;55;21003;-73
2022/02/15 05:10:34;;;;;;;3.83;1.50;;;10.50;68.90;;;;;;2276358;55;21026;-72
2022/02/15 05:13:01;;;;;;;2.58;1.33;;;10.40;68.80;;;;;;2289115;56;21676;-72
2022/02/15 05:15:28;;;;;;;3.87;1.37;;;10.40;68.80;;;;;;2340174;55;21149;-74
2022/02/15 05:17:54;;;;;;;3.05;1.20;;;10.40;68.90;;;;;;2287477;55;20960;-72
2022/02/15 05:20:22;;;;;;;5.28;1.05;;;10.40;69.00;;;;;;2298944;55;20955;-72
2022/02/15 05:22:50;;;;;;;3.40;1.35;;;10.50;69.10;;;;;;2289520;56;20992;-73
2022/02/15 05:25:16;;;;;;;4.25;1.67;;;10.40;69.10;;;;;;2289538;56;21016;-73
2022/02/15 05:27:43;;;;;;;3.30;1.37;;;10.40;69.00;;;;;;2287230;55;20948;-72
2022/02/15 05:30:09;;;;;;;3.28;1.25;;;10.50;69.20;;;;;;2289142;56;21020;-72
2022/02/15 05:32:36;;;;;;;3.00;1.27;;;10.50;69.20;;;;;;2287473;55;21547;-72
2022/02/15 05:35:03;;;;;;;2.95;1.48;;;10.50;69.20;;;;;;2288288;55;20968;-72
2022/02/15 05:37:30;;;;;;;5.10;1.50;;;10.50;69.20;;;;;;2288386;55;20952;-72
2022/02/15 05:39:56;;;;;;;3.42;1.62;;;10.50;69.20;;;;;;2289074;56;21510;-74
2022/02/15 05:42:23;;;;;;;3.30;1.30;;;10.50;69.10;;;;;;2288285;55;21467;-72
2022/02/15 05:44:49;;;;;;;2.65;1.25;;;10.50;69.20;;;;;;2289021;56;21505;-72
2022/02/15 05:47:18;;;;;;;2.97;1.33;;;10.40;69.10;;;;;;2331041;55;20997;-72
2022/02/15 05:52:29;;;;;;;4.10;1.48;;;10.40;69.30;;;;;;2289207;56;20940;-73
2022/02/15 05:54:55;;;;;;;3.62;1.62;;;10.40;69.20;;;;;;2287661;55;20965;-72
2022/02/15 05:57:22;;;;;;;3.17;1.60;;;10.40;69.20;;;;;;2289725;55;20970;-72
2022/02/15 05:59:48;;;;;;;3.62;1.65;;;10.40;69.30;;;;;;2286308;55;20971;-72
2022/02/15 06:02:15;;;;;;;3.00;1.33;;;10.40;69.30;;;;;;2288702;56;21002;-72
2022/02/15 06:04:43;;;;;;;3.78;1.65;;;10.40;69.40;;;;;;2288507;56;20944;-72
2022/02/15 06:07:10;;;;;;;5.15;1.73;;;10.40;69.30;;;;;;2293299;55;21004;-72
2022/02/15 06:09:37;;;;;;;4.15;1.40;;;10.40;70.10;;;;;;2288816;56;20921;-71
2022/02/15 06:12:03;;;;;;;3.58;1.60;;;10.50;69.50;;;;;;2311168;55;21000;-72
2022/02/15 06:14:33;;;;;;;3.35;1.73;;;10.50;69.50;;;;;;2291486;55;20964;-73
2022/02/15 06:17:02;;;;;;;3.40;1.40;;;10.50;70.10;;;;;;2391128;54;20960;-73
2022/02/15 06:19:31;;;;;;;2.80;1.40;;;10.50;69.40;;;;;;2288068;55;20922;-72
2022/02/15 06:21:58;;;;;;;3.97;1.75;;;10.50;69.50;;;;;;2288191;55;20976;-72
2022/02/15 06:24:25;;;;;;;3.72;1.75;;;10.40;69.40;;;;;;2288745;56;20957;-73
2022/02/15 06:27:02;;;;;;;2.92;1.60;;;10.40;69.30;;;;;;2287367;55;20965;-72
2022/02/15 06:29:32;;;;;;;3.50;1.73;;;10.40;69.30;;;;;;2288132;56;22072;-73
2022/02/15 06:31:58;;;;;;;4.55;2.00;;;10.40;69.40;;;;;;2399147;55;21906;-72
2022/02/15 06:34:25;;;;;;;4.03;2.08;;;10.40;69.00;;;;;;2289004;56;21001;-72
2022/02/15 06:36:52;;;;;;;4.82;2.03;;;10.40;68.90;;;;;;2292592;55;21206;-70
2022/02/15 06:39:20;;;;;;;4.15;2.00;;;10.30;68.80;;;;;;2281903;54;21562;-72
2022/02/15 06:41:47;;;;;;;6.28;2.17;;;10.30;68.80;;;;;;2269750;55;20980;-70
2022/02/15 06:44:17;;;;;;;4.07;1.67;;;10.30;68.90;;;;;;2288654;55;20992;-70
2022/02/15 06:46:43;;;;;;;3.75;1.87;;;10.20;69.50;;;;;;2289140;56;20936;-70
2022/02/15 06:49:16;;;;;;;5.47;2.33;;;10.10;68.70;;;;;;2288266;56;21585;-70
2022/02/15 06:51:42;;;;;;;;;;;10.10;68.80;;;;;;2292343;56;21372;-70
2022/02/15 06:54:08;;;;;;;5.15;2.92;;;10.10;68.40;;;;;;2475600;55;20068;-70
2022/02/15 06:56:38;;;;;;;5.40;3.03;;;10.00;68.80;;;;;;2356881;54;21012;-71
2022/02/15 06:59:05;;;;;;;7.07;3.70;;;10.00;68.80;;;;;;2288372;55;21005;-70
2022/02/15 07:01:31;;;;;;;7.32;4.10;;;9.90;70.10;;;;;;2288558;55;21000;-70
2022/02/15 07:03:58;;;;;;;9.25;4.25;;;9.90;70.20;;;;;;2406166;55;20989;-70
2022/02/15 07:06:24;;;;;;;11.15;4.75;;;9.90;70.40;;;;;;2302122;54;20978;-71
2022/02/15 07:08:52;;;;;;;7.47;3.47;;;9.90;70.40;;;;;;2288714;56;20963;-70
2022/02/15 07:11:19;;;;;;;7.70;3.62;;;9.80;70.40;;;;;;2421288;54;20996;-71
2022/02/15 07:13:46;;;;;;;7.25;3.17;;;9.80;70.50;;;;;;2289169;56;21410;-70
2022/02/15 07:16:12;;;;;;;5.15;2.83;;;9.80;70.50;;;;;;2333415;54;21410;-71
2022/02/15 07:18:42;;;;;;;4.78;2.78;;;9.80;70.50;;;;;;2288715;56;20929;-72
2022/02/15 07:21:09;;;;;;;5.93;2.72;;;9.70;70.50;;;;;;2288686;55;21316;-72
2022/02/15 07:23:37;;;;;;;3.97;2.22;;;9.80;70.60;;;;;;2288990;56;20987;-70
2022/02/15 07:26:05;;;;;;;5.87;2.50;;;9.70;70.60;;;;;;2289111;56;20941;-70
2022/02/15 07:28:32;;;;;;;4.87;1.98;;;9.70;70.70;;;;;;2288200;56;20936;-71
2022/02/15 07:30:58;;;;;;;4.60;1.92;;;9.70;70.80;;;;;;2289032;56;20936;-71
2022/02/15 07:33:26;;;;;;;4.22;2.20;;;9.70;71.00;;;;;;2291353;55;21493;-70
2022/02/15 07:35:53;;;;;;;3.70;1.65;;;9.60;71.00;;;;;;2287078;56;21482;-71
2022/02/15 07:38:20;;;;;;;3.65;1.90;;;9.70;71.20;;;;;;2286283;54;20957;-70
2022/02/15 07:40:48;;;;;;;5.50;2.17;;;9.70;71.30;;;;;;2286015;56;21382;-71
2022/02/15 07:43:14;;;;;;;3.78;1.70;;;9.60;71.40;;;;;;2519839;55;21002;-70
2022/02/15 07:45:43;;;;;;;4.45;1.90;;;9.60;71.40;;;;;;2287001;56;21536;-70
2022/02/15 07:48:10;;;;;;;4.12;1.67;;;9.70;71.70;;;;;;2343122;54;21895;-70
2022/02/15 07:50:36;;;;;;;3.20;1.50;;;9.70;71.70;;;;;;2421084;54;20961;-71
2022/02/15 07:53:03;;;;;;;3.83;1.70;;;9.70;71.80;;;;;;2286503;56;22077;-70
2022/02/15 07:55:29;;;;;;;4.80;2.35;;;9.70;71.90;;;;;;2291430;55;21064;-72
2022/02/15 07:57:56;;;;;;;4.10;2.10;;;9.70;71.90;;;;;;2286826;56;21108;-70
2022/02/15 08:00:22;;;;;;;4.75;2.15;;;9.80;71.90;;;;;;2287643;55;20974;-71
2022/02/15 08:02:50;;;;;;;3.62;1.83;;;9.70;71.80;;;;;;2286144;55;21493;-73
2022/02/15 08:05:16;;;;;;;5.15;2.45;;;9.80;71.90;;;;;;2287741;55;20953;-71
2022/02/15 08:07:49;;;;;;;4.00;2.03;;;9.80;71.80;;;;;;2285833;54;20961;-71
2022/02/15 08:10:18;;;;;;;3.87;1.70;;;9.80;71.80;;;;;;2287136;56;21394;-71
2022/02/15 08:12:58;;;;;;;4.15;2.12;;;9.80;71.90;;;;;;2287624;55;21009;-71
2022/02/15 08:15:32;;;;;;;4.62;2.40;;;9.80;72.00;;;;;;2285882;54;22056;-72
2022/02/15 08:17:59;;;;;;;5.25;2.22;;;9.80;72.10;;;;;;2284883;55;21329;-72
2022/02/15 08:20:27;;;;;;;5.18;2.50;;;9.80;72.20;;;;;;2288362;55;21538;-71
2022/02/15 08:22:54;;;;;;;4.12;2.00;;;9.80;72.20;;;;;;2304732;55;20996;-71
2022/02/15 08:25:21;;;;;;;4.00;2.15;;;9.90;72.30;;;;;;2286529;56;21032;-71
2022/02/15 08:27:48;;;;;;;4.47;2.40;;;9.90;72.30;;;;;;2288959;55;20961;-71
2022/02/15 08:30:15;;;;;;;4.50;2.55;;;9.90;72.30;;;;;;2314372;54;20948;-70
2022/02/15 08:32:41;;;;;;;4.12;2.12;;;9.90;72.30;;;;;;2367652;55;21008;-72
2022/02/15 08:35:08;;;;;;;4.32;2.12;;;9.90;72.30;;;;;;2338382;55;20947;-72
2022/02/15 08:37:35;;;;;;;4.30;2.10;;;10.00;71.30;;;;;;2363521;55;21052;-71
2022/02/15 08:40:05;;;;;;;3.67;2.00;;;10.00;71.30;;;;;;2288251;55;20948;-70
2022/02/15 08:42:33;;;;;;;4.15;2.37;;;10.00;71.30;;;;;;2287003;56;20953;-70
2022/02/15 08:44:59;;;;;;;4.25;2.15;;;10.00;71.20;;;;;;2290551;55;21074;-71
2022/02/15 08:47:26;;;;;;;4.03;2.10;;;10.00;71.20;;;;;;2284996;55;20964;-71
2022/02/15 08:49:52;;;;;;;6.15;2.20;;;10.00;71.20;;;;;;2467850;55;20980;-71
2022/02/15 08:52:20;;;;;;;4.30;2.10;;;10.10;71.40;;;;;;2286331;56;20948;-72
2022/02/15 08:54:51;;;;;;;4.80;2.50;;;10.10;71.50;;;;;;2286776;56;21434;-72
2022/02/15 08:57:18;;;;;;;3.80;2.08;;;10.10;71.50;;;;;;2295635;55;21036;-70
2022/02/15 08:59:45;;;;;;;4.50;2.10;;;10.20;71.60;;;;;;2287371;56;20973;-71
2022/02/15 09:02:11;;;;;;;2.92;1.77;;;10.20;71.70;;;;;;2326683;54;21397;-71
2022/02/15 09:04:37;;;;;;;4.75;2.10;;;10.20;71.60;;;;;;2284897;55;21021;-71
2022/02/15 09:07:04;;;;;;;4.20;2.10;;;10.20;71.60;;;;;;2305177;55;20969;-71
2022/02/15 09:09:31;;;;;;;3.95;1.98;;;10.30;71.50;;;;;;2381009;54;21074;-72
2022/02/15 09:11:57;;;;;;;3.65;1.83;;;10.30;71.50;;;;;;2321010;55;21051;-72
2022/02/15 09:14:24;;;;;;;3.72;2.00;;;10.30;71.70;;;;;;2286697;56;20964;-71
2022/02/15 09:16:50;;;;;;;4.20;2.20;;;10.30;71.90;;;;;;2287190;56;21027;-72
2022/02/15 09:19:17;;;;;;;5.25;2.08;;;10.40;72.00;;;;;;2352868;55;20945;-72
2022/02/15 09:21:46;;;;;;;4.40;2.10;;;10.40;72.10;;;;;;2289428;55;20946;-72
2022/02/15 09:24:14;;;;;;;4.43;1.92;;;10.50;72.10;;;;;;2287364;56;20977;-71
2022/02/15 09:26:41;;;;;;;3.50;1.90;;;10.50;72.10;;;;;;2325514;55;20968;-72
2022/02/15 09:29:07;;;;;;;6.90;2.10;;;10.60;72.40;;;;;;2290697;55;21394;-72
2022/02/15 09:31:33;;;;;;;3.50;1.83;;;10.70;72.60;;;;;;2387263;54;21112;-72
2022/02/15 09:34:04;;;;;;;4.53;2.20;;;10.70;72.50;;;;;;2285599;55;21529;-71
2022/02/15 09:36:30;;;;;;;4.07;2.20;;;10.80;72.60;;;;;;2418313;55;22432;-73
2022/02/15 09:38:57;;;;;;;5.05;2.20;;;10.80;72.40;;;;;;2286939;56;20988;-72
2022/02/15 09:41:24;;;;;;;4.18;1.92;;;10.80;72.30;;;;;;2287609;55;21024;-73
2022/02/15 09:43:50;;;;;;;3.92;2.08;;;10.90;72.40;;;;;;2361583;55;20958;-72
2022/02/15 09:46:17;;;;;;;4.40;2.35;;;11.00;72.30;;;;;;2365718;55;21048;-72
2022/02/15 09:48:44;;;;;;;4.10;2.17;;;11.10;72.40;;;;;;2288018;55;21458;-72
2022/02/15 09:51:11;;;;;;;3.12;1.50;;;11.10;72.10;;;;;;2283132;55;21050;-72
2022/02/15 09:53:40;;;;;;;3.87;2.00;;;11.10;72.70;;;;;;2383907;54;20973;-73
2022/02/15 09:56:07;;;;;;;4.40;2.15;;;11.20;72.20;;;;;;2289867;55;20934;-72
2022/02/15 09:58:34;;;;;;;5.20;2.45;;;11.30;72.70;;;;;;2286434;56;20957;-71
2022/02/15 10:01:01;;;;;;;4.90;3.03;;;11.30;72.30;;;;;;2293206;55;20964;-72
2022/02/15 10:03:28;;;;;;;4.32;2.22;;;11.30;72.50;;;;;;2286367;56;20957;-71
2022/02/15 10:05:54;;;;;;;4.72;2.40;;;11.40;72.70;;;;;;2459337;55;20972;-71
2022/02/15 10:08:27;;;;;;;4.35;2.15;;;11.50;72.80;;;;;;2289629;55;20991;-73
2022/02/15 10:10:54;;;;;;;4.40;2.28;;;11.50;72.60;;;;;;2321574;54;20964;-74
2022/02/15 10:13:21;;;;;;;3.65;1.75;;;11.70;73.70;;;;;;2286670;56;20980;-71
2022/02/15 10:15:49;;;;;;;3.67;1.75;;;11.80;74.10;;;;;;2521062;55;21856;-70
2022/02/15 10:18:20;;;;;;;3.83;1.80;;;11.90;73.80;;;;;;2490368;55;21001;-72
2022/02/15 10:20:46;;;;;;;6.03;2.40;;;12.00;73.20;;;;;;2287117;56;20937;-74
2022/02/15 10:23:24;;;;;;;4.53;2.47;;;12.10;72.80;;;;;;2289988;55;20962;-74
2022/02/15 10:25:51;;;;;;;4.28;2.47;;;12.20;71.90;;;;;;2281498;55;21027;-74
2022/02/15 10:28:28;;;;;;;4.12;2.35;;;12.20;72.10;;;;;;2313497;55;21108;-74
2022/02/15 10:30:56;;;;;;;4.18;1.95;;;12.30;71.80;;;;;;2288962;55;21089;-73
2022/02/15 10:33:37;;;;;;;4.37;2.10;;;12.30;71.50;;;;;;2286936;56;20989;-74
2022/02/15 10:36:08;;;;;;;6.03;2.40;;;12.30;70.90;;;;;;2288206;55;20937;-72
2022/02/15 10:38:49;;;;;;;4.35;2.22;;;12.30;70.80;;;;;;2285098;55;20973;-74
2022/02/15 10:41:17;;;;;;;;;;;12.30;70.30;;;;;;2290459;56;20964;-73
2022/02/15 10:43:57;;;;;;;4.12;2.35;;;12.40;69.60;;;;;;2435523;55;20143;-74
2022/02/15 10:46:25;;;;;;;3.78;2.00;;;12.40;70.00;;;;;;2286791;56;20968;-75
2022/02/15 10:48:52;;;;;;;4.85;2.37;;;12.40;70.30;;;;;;2286792;56;21266;-73
2022/02/15 10:51:20;;;;;;;4.93;2.05;;;12.30;69.70;;;;;;2286238;56;20956;-73
2022/02/15 10:53:54;;;;;;;3.45;1.90;;;12.30;69.90;;;;;;2287294;56;20944;-73
2022/02/15 10:56:22;;;;;;;4.75;2.75;;;12.30;70.30;;;;;;2286943;56;20957;-74
2022/02/15 10:58:51;;;;;;;4.37;2.70;;;12.30;70.40;;;;;;2323209;55;21740;-73
2022/02/15 11:01:17;;;;;;;4.50;2.45;;;12.30;70.10;;;;;;2286450;55;21032;-73
2022/02/15 11:03:44;;;;;;;5.60;2.67;;;12.30;70.10;;;;;;2350184;54;20922;-73
2022/02/15 11:06:10;;;;;;;5.57;3.10;;;12.30;70.00;;;;;;2287810;55;20994;-74
2022/02/15 11:08:38;;;;;;;4.25;2.62;;;12.30;69.80;;;;;;2322572;55;21009;-73
2022/02/15 11:11:08;;;;;;;5.10;2.60;;;12.30;70.20;;;;;;2283593;56;20940;-73
2022/02/15 11:13:37;;;;;;;3.90;2.12;;;12.40;70.40;;;;;;2392817;55;20993;-72
2022/02/15 11:16:11;;;;;;;4.70;2.03;;;12.40;70.60;;;;;;2287016;56;21457;-73
2022/02/15 11:18:38;;;;;;;4.03;2.00;;;12.50;70.40;;;;;;2289722;56;21000;-72
2022/02/15 11:21:06;;;;;;;3.33;2.10;;;12.50;71.00;;;;;;2283057;55;21075;-73
2022/02/15 11:23:33;;;;;;;4.32;2.58;;;12.50;70.50;;;;;;2286984;56;21051;-73
2022/02/15 11:26:17;;;;;;;4.37;1.90;;;12.60;70.10;;;;;;2286686;56;21012;-74
2022/02/15 11:28:57;;;;;;;3.28;1.60;;;12.60;68.80;;;;;;2286799;56;21000;-72
2022/02/15 11:31:42;;;;;;;3.33;1.55;;;12.60;68.90;;;;;;2293576;55;21057;-73
2022/02/15 11:34:11;;;;;;;4.93;2.00;;;12.60;68.50;;;;;;2279055;55;21012;-74
2022/02/15 11:36:50;;;;;;;3.75;1.90;;;12.60;68.80;;;;;;2287470;56;21029;-73
2022/02/15 11:39:17;;;;;;;3.58;1.92;;;12.60;68.10;;;;;;2298744;55;21012;-74
2022/02/15 11:41:46;;;;;;;4.60;2.00;;;12.50;68.60;;;;;;2286834;55;21343;-73
2022/02/15 11:44:14;;;;;;;7.65;4.35;;;12.50;68.40;;;;;;2288931;55;21433;-73
2022/02/15 11:46:43;;;;;;;6.87;3.87;;;12.40;68.20;;;;;;2286085;55;20977;-72
2022/02/15 11:49:23;;;;;;;6.10;3.03;;;12.40;68.10;;;;;;2279205;55;21080;-73
2022/02/15 11:51:50;;;;;;;4.75;2.22;;;12.30;67.90;;;;;;2364599;55;21049;-73
2022/02/15 11:54:18;;;;;;;4.30;2.15;;;12.30;68.00;;;;;;2301103;55;20981;-72
2022/02/15 11:56:45;;;;;;;4.18;1.92;;;12.20;67.70;;;;;;2300916;55;20949;-73
2022/02/15 11:59:18;;;;;;;4.37;1.70;;;12.20;67.70;;;;;;2330174;55;21597;-72
2022/02/15 12:01:59;;;;;;;2.50;1.23;;;12.10;67.20;;;;;;2284485;55;20969;-71
2022/02/15 12:04:25;;;;;;;1.67;0.73;;;12.00;66.70;;;;;;2286197;55;20994;-72
2022/02/15 12:06:51;;;;;;;2.15;0.85;;;11.90;66.60;;;;;;2285904;55;20996;-72
2022/02/15 12:09:25;;;;;;;1.83;0.70;;;11.70;66.20;;;;;;2287061;56;21498;-70
2022/02/15 12:11:51;;;;;;;1.42;0.70;;;11.70;65.90;;;;;;2289925;56;21201;-71
2022/02/15 12:14:18;;;;;;;2.03;0.70;;;11.50;65.80;;;;;;2283331;55;21068;-71
2022/02/15 12:16:59;;;;;;;2.45;0.80;;;11.30;65.60;;;;;;2309336;55;20964;-71
2022/02/15 12:19:36;;;;;;;2.75;0.90;;;11.20;65.60;;;;;;2286939;56;21362;-71
2022/02/15 12:22:14;;;;;;;2.03;1.02;;;11.00;65.60;;;;;;2288556;55;21028;-71
2022/02/15 12:24:40;;;;;;;3.45;0.98;;;10.90;65.80;;;;;;2327874;54;20956;-71
2022/02/15 12:27:07;;;;;;;3.05;1.05;;;10.70;66.10;;;;;;2282837;55;21416;-71
2022/02/15 12:29:34;;;;;;;5.35;2.80;;;10.70;66.80;;;;;;2286866;55;20961;-71
2022/02/15 12:32:03;;;;;;;3.70;1.90;;;10.60;67.30;;;;;;2287438;56;21020;-72
2022/02/15 12:34:30;;;;;;;3.25;1.60;;;10.50;68.10;;;;;;2318665;55;21020;-72
2022/02/15 12:36:57;;;;;;;2.90;1.30;;;10.50;68.90;;;;;;2287441;56;20948;-70
2022/02/15 12:39:36;;;;;;;3.03;1.50;;;10.50;69.70;;;;;;2287069;56;20976;-70
2022/02/15 12:42:15;;;;;;;2.65;1.30;;;10.60;71.00;;;;;;2267281;56;21022;-71
2022/02/15 12:44:42;;;;;;;2.80;1.15;;;10.70;71.90;;;;;;2286376;55;20976;-72
2022/02/15 12:47:08;;;;;;;2.30;1.10;;;10.90;73.00;;;;;;2287198;56;21528;-72
2022/02/15 12:49:35;;;;;;;3.45;1.33;;;11.00;73.50;;;;;;2288177;55;20965;-72
2022/02/15 12:52:01;;;;;;;2.00;0.82;;;11.20;73.50;;;;;;2328470;55;21421;-71
2022/02/15 12:54:29;;;;;;;1.62;0.70;;;11.30;73.10;;;;;;2293991;55;20949;-70
2022/02/15 12:56:58;;;;;;;2.78;1.02;;;11.40;72.70;;;;;;2335553;54;20948;-71